sensor_id;sensor_type;location;lat;lon;timestamp;P1;durP1;ratioP1;P2;durP2;ratioP2
68700;SDS011;55682;51.114;5.882;2023-10-19T00:00:47;6.31;;;6.31;;
68700;SDS011;55682;51.114;5.882;2023-10-19T00:03:16;5.94;;;5.94;;
68700;SDS011;55682;51.114;5.882;2023-10-19T00:05:43;6.13;;;6.13;;
68700;SDS011;55682;51.114;5.882;2023-10-19T00:08:12;6.39;;;6.39;;
68700;SDS011;55682;51.114;5.882;2023-10-19T00:10:39;5.89;;;5.89;;
68700;SDS011;55682;51.114;5.882;2023-10-19T00:13:08;6.08;;;6.08;;
68700;SDS011;55682;51.114;5.882;2023-10-19T00:15:37;5.77;;;5.77;;
68700;SDS011;55682;51.114;5.882;2023-10-19T00:18:16;6.27;;;6.27;;
68700;SDS011;55682;51.114;5.882;2023-10-19T00:20:43;6.08;;;6.08;;
68700;SDS011;55682;51.114;5.882;2023-10-19T00:23:10;5.74;;;5.74;;
68700;SDS011;55682;51.114;5.882;2023-10-19T00:25:38;6.05;;;6.05;;
68700;SDS011;55682;51.114;5.882;2023-10-19T00:28:07;5.77;;;5.77;;
68700;SDS011;55682;51.114;5.882;2023-10-19T00:30:33;6.04;;;6.04;;
68700;SDS011;55682;51.114;5.882;2023-10-19T00:33:01;5.71;;;5.71;;
68700;SDS011;55682;51.114;5.882;2023-10-19T00:35:34;6.03;;;6.03;;
68700;SDS011;55682;51.114;5.882;2023-10-19T00:38:01;5.86;;;5.86;;
68700;SDS011;55682;51.114;5.882;2023-10-19T00:41:03;5.95;;;5.95;;
68700;SDS011;55682;51.114;5.882;2023-10-19T00:43:36;5.64;;;5.64;;
68700;SDS011;55682;51.114;5.882;2023-10-19T00:51:22;5.49;;;5.49;;
68700;SDS011;55682;51.114;5.882;2023-10-19T00:54:13;4.92;;;4.92;;
68700;SDS011;55682;51.114;5.882;2023-10-19T00:56:49;5.28;;;5.28;;
68700;SDS011;55682;51.114;5.882;2023-10-19T00:59:17;4.80;;;4.80;;
68700;SDS011;55682;51.114;5.882;2023-10-19T01:01:53;4.61;;;4.61;;
68700;SDS011;55682;51.114;5.882;2023-10-19T01:04:24;4.37;;;4.37;;
68700;SDS011;55682;51.114;5.882;2023-10-19T01:06:57;4.05;;;4.05;;
68700;SDS011;55682;51.114;5.882;2023-10-19T01:09:43;3.79;;;3.79;;
68700;SDS011;55682;51.114;5.882;2023-10-19T01:12:09;3.44;;;3.44;;
68700;SDS011;55682;51.114;5.882;2023-10-19T01:17:32;2.61;;;2.61;;
68700;SDS011;55682;51.114;5.882;2023-10-19T01:20:03;1.93;;;1.93;;
68700;SDS011;55682;51.114;5.882;2023-10-19T01:25:49;1.57;;;1.57;;
68700;SDS011;55682;51.114;5.882;2023-10-19T01:28:22;1.35;;;1.35;;
68700;SDS011;55682;51.114;5.882;2023-10-19T01:31:12;1.14;;;1.14;;
68700;SDS011;55682;51.114;5.882;2023-10-19T01:33:48;1.16;;;1.16;;
68700;SDS011;55682;51.114;5.882;2023-10-19T01:36:14;1.19;;;1.19;;
68700;SDS011;55682;51.114;5.882;2023-10-19T01:38:50;1.01;;;1.01;;
68700;SDS011;55682;51.114;5.882;2023-10-19T01:41:19;0.76;;;0.76;;
68700;SDS011;55682;51.114;5.882;2023-10-19T01:43:47;0.90;;;0.90;;
68700;SDS011;55682;51.114;5.882;2023-10-19T01:46:14;0.98;;;0.98;;
68700;SDS011;55682;51.114;5.882;2023-10-19T01:49:01;0.88;;;0.88;;
68700;SDS011;55682;51.114;5.882;2023-10-19T01:51:30;0.82;;;0.82;;
68700;SDS011;55682;51.114;5.882;2023-10-19T01:54:04;0.78;;;0.78;;
68700;SDS011;55682;51.114;5.882;2023-10-19T01:56:32;0.73;;;0.73;;
68700;SDS011;55682;51.114;5.882;2023-10-19T01:59:01;0.77;;;0.77;;
68700;SDS011;55682;51.114;5.882;2023-10-19T02:01:29;0.75;;;0.75;;
68700;SDS011;55682;51.114;5.882;2023-10-19T02:03:58;0.80;;;0.80;;
68700;SDS011;55682;51.114;5.882;2023-10-19T02:06:27;0.82;;;0.82;;
68700;SDS011;55682;51.114;5.882;2023-10-19T02:09:02;0.76;;;0.74;;
68700;SDS011;55682;51.114;5.882;2023-10-19T02:11:49;0.74;;;0.72;;
68700;SDS011;55682;51.114;5.882;2023-10-19T02:14:18;0.84;;;0.82;;
68700;SDS011;55682;51.114;5.882;2023-10-19T02:16:45;0.75;;;0.73;;
68700;SDS011;55682;51.114;5.882;2023-10-19T02:19:21;0.67;;;0.64;;
68700;SDS011;55682;51.114;5.882;2023-10-19T02:21:48;0.65;;;0.62;;
68700;SDS011;55682;51.114;5.882;2023-10-19T02:24:15;0.79;;;0.75;;
68700;SDS011;55682;51.114;5.882;2023-10-19T02:26:42;0.78;;;0.74;;
68700;SDS011;55682;51.114;5.882;2023-10-19T02:29:09;0.85;;;0.81;;
68700;SDS011;55682;51.114;5.882;2023-10-19T02:31:39;0.72;;;0.68;;
68700;SDS011;55682;51.114;5.882;2023-10-19T02:34:06;0.64;;;0.60;;
68700;SDS011;55682;51.114;5.882;2023-10-19T02:36:35;0.69;;;0.65;;
68700;SDS011;55682;51.114;5.882;2023-10-19T02:39:09;0.79;;;0.74;;
68700;SDS011;55682;51.114;5.882;2023-10-19T02:41:40;0.70;;;0.65;;
68700;SDS011;55682;51.114;5.882;2023-10-19T02:44:08;0.81;;;0.75;;
68700;SDS011;55682;51.114;5.882;2023-10-19T02:46:35;0.75;;;0.70;;
68700;SDS011;55682;51.114;5.882;2023-10-19T02:49:05;0.71;;;0.66;;
68700;SDS011;55682;51.114;5.882;2023-10-19T02:51:39;0.76;;;0.70;;
68700;SDS011;55682;51.114;5.882;2023-10-19T02:54:07;0.76;;;0.71;;
68700;SDS011;55682;51.114;5.882;2023-10-19T02:56:34;0.68;;;0.62;;
68700;SDS011;55682;51.114;5.882;2023-10-19T02:59:01;0.69;;;0.63;;
68700;SDS011;55682;51.114;5.882;2023-10-19T03:01:30;0.92;;;0.84;;
68700;SDS011;55682;51.114;5.882;2023-10-19T03:03:59;0.83;;;0.76;;
68700;SDS011;55682;51.114;5.882;2023-10-19T03:06:28;0.73;;;0.66;;
68700;SDS011;55682;51.114;5.882;2023-10-19T03:09:03;0.80;;;0.72;;
68700;SDS011;55682;51.114;5.882;2023-10-19T03:11:30;0.99;;;0.89;;
68700;SDS011;55682;51.114;5.882;2023-10-19T03:14:00;0.93;;;0.83;;
68700;SDS011;55682;51.114;5.882;2023-10-19T03:16:29;1.02;;;0.90;;
68700;SDS011;55682;51.114;5.882;2023-10-19T03:18:55;0.94;;;0.83;;
68700;SDS011;55682;51.114;5.882;2023-10-19T03:21:21;0.94;;;0.83;;
68700;SDS011;55682;51.114;5.882;2023-10-19T03:23:54;0.93;;;0.82;;
68700;SDS011;55682;51.114;5.882;2023-10-19T03:26:22;0.92;;;0.81;;
68700;SDS011;55682;51.114;5.882;2023-10-19T03:28:53;1.04;;;0.91;;
68700;SDS011;55682;51.114;5.882;2023-10-19T03:31:22;1.05;;;0.90;;
68700;SDS011;55682;51.114;5.882;2023-10-19T03:33:50;0.97;;;0.84;;
68700;SDS011;55682;51.114;5.882;2023-10-19T03:36:23;0.86;;;0.74;;
68700;SDS011;55682;51.114;5.882;2023-10-19T03:38:50;0.87;;;0.77;;
68700;SDS011;55682;51.114;5.882;2023-10-19T03:41:18;0.93;;;0.83;;
68700;SDS011;55682;51.114;5.882;2023-10-19T03:43:49;0.99;;;0.87;;
68700;SDS011;55682;51.114;5.882;2023-10-19T03:46:17;0.94;;;0.82;;
68700;SDS011;55682;51.114;5.882;2023-10-19T03:49:02;0.83;;;0.73;;
68700;SDS011;55682;51.114;5.882;2023-10-19T03:51:39;0.85;;;0.76;;
68700;SDS011;55682;51.114;5.882;2023-10-19T03:54:08;0.83;;;0.74;;
68700;SDS011;55682;51.114;5.882;2023-10-19T03:56:51;0.82;;;0.74;;
68700;SDS011;55682;51.114;5.882;2023-10-19T03:59:17;0.87;;;0.79;;
68700;SDS011;55682;51.114;5.882;2023-10-19T04:01:44;0.82;;;0.74;;
68700;SDS011;55682;51.114;5.882;2023-10-19T04:04:10;0.82;;;0.74;;
68700;SDS011;55682;51.114;5.882;2023-10-19T04:06:36;0.95;;;0.85;;
68700;SDS011;55682;51.114;5.882;2023-10-19T04:09:02;0.86;;;0.76;;
68700;SDS011;55682;51.114;5.882;2023-10-19T04:11:32;0.95;;;0.85;;
68700;SDS011;55682;51.114;5.882;2023-10-19T04:14:10;1.07;;;0.95;;
68700;SDS011;55682;51.114;5.882;2023-10-19T04:16:35;0.79;;;0.72;;
68700;SDS011;55682;51.114;5.882;2023-10-19T04:19:02;0.86;;;0.78;;
68700;SDS011;55682;51.114;5.882;2023-10-19T04:21:29;1.01;;;0.92;;
68700;SDS011;55682;51.114;5.882;2023-10-19T04:23:55;1.06;;;0.97;;
68700;SDS011;55682;51.114;5.882;2023-10-19T04:26:22;0.98;;;0.90;;
68700;SDS011;55682;51.114;5.882;2023-10-19T04:28:49;1.09;;;1.00;;
68700;SDS011;55682;51.114;5.882;2023-10-19T04:31:18;0.84;;;0.76;;
68700;SDS011;55682;51.114;5.882;2023-10-19T04:33:44;1.04;;;0.94;;
68700;SDS011;55682;51.114;5.882;2023-10-19T04:36:11;0.98;;;0.88;;
68700;SDS011;55682;51.114;5.882;2023-10-19T04:38:38;0.96;;;0.87;;
68700;SDS011;55682;51.114;5.882;2023-10-19T04:41:08;1.04;;;0.94;;
68700;SDS011;55682;51.114;5.882;2023-10-19T04:43:36;1.05;;;0.95;;
68700;SDS011;55682;51.114;5.882;2023-10-19T04:46:07;1.03;;;0.93;;
68700;SDS011;55682;51.114;5.882;2023-10-19T04:48:39;1.00;;;0.91;;
68700;SDS011;55682;51.114;5.882;2023-10-19T04:51:06;1.13;;;1.03;;
68700;SDS011;55682;51.114;5.882;2023-10-19T04:53:32;1.03;;;0.94;;
68700;SDS011;55682;51.114;5.882;2023-10-19T04:55:58;1.19;;;1.07;;
68700;SDS011;55682;51.114;5.882;2023-10-19T04:58:26;1.18;;;1.08;;
68700;SDS011;55682;51.114;5.882;2023-10-19T05:00:53;1.13;;;1.03;;
68700;SDS011;55682;51.114;5.882;2023-10-19T05:03:19;1.00;;;0.92;;
68700;SDS011;55682;51.114;5.882;2023-10-19T05:05:45;1.21;;;1.10;;
68700;SDS011;55682;51.114;5.882;2023-10-19T05:08:11;1.08;;;0.98;;
68700;SDS011;55682;51.114;5.882;2023-10-19T05:10:36;1.25;;;1.15;;
68700;SDS011;55682;51.114;5.882;2023-10-19T05:13:02;1.05;;;0.96;;
68700;SDS011;55682;51.114;5.882;2023-10-19T05:15:29;1.18;;;1.07;;
68700;SDS011;55682;51.114;5.882;2023-10-19T05:17:55;1.30;;;1.19;;
68700;SDS011;55682;51.114;5.882;2023-10-19T05:20:21;1.19;;;1.09;;
68700;SDS011;55682;51.114;5.882;2023-10-19T05:22:47;1.14;;;1.04;;
68700;SDS011;55682;51.114;5.882;2023-10-19T05:25:12;1.36;;;1.22;;
68700;SDS011;55682;51.114;5.882;2023-10-19T05:27:39;1.32;;;1.17;;
68700;SDS011;55682;51.114;5.882;2023-10-19T05:30:05;1.37;;;1.21;;
68700;SDS011;55682;51.114;5.882;2023-10-19T05:32:31;1.48;;;1.33;;
68700;SDS011;55682;51.114;5.882;2023-10-19T05:34:58;1.22;;;1.11;;
68700;SDS011;55682;51.114;5.882;2023-10-19T05:37:24;1.20;;;1.09;;
68700;SDS011;55682;51.114;5.882;2023-10-19T05:39:50;1.39;;;1.26;;
68700;SDS011;55682;51.114;5.882;2023-10-19T05:42:17;1.34;;;1.23;;
68700;SDS011;55682;51.114;5.882;2023-10-19T05:44:43;1.24;;;1.15;;
68700;SDS011;55682;51.114;5.882;2023-10-19T05:47:08;1.28;;;1.18;;
68700;SDS011;55682;51.114;5.882;2023-10-19T05:49:34;1.33;;;1.21;;
68700;SDS011;55682;51.114;5.882;2023-10-19T05:52:00;1.36;;;1.21;;
68700;SDS011;55682;51.114;5.882;2023-10-19T05:54:25;1.42;;;1.26;;
68700;SDS011;55682;51.114;5.882;2023-10-19T05:56:52;1.28;;;1.16;;
68700;SDS011;55682;51.114;5.882;2023-10-19T05:59:17;1.36;;;1.24;;
68700;SDS011;55682;51.114;5.882;2023-10-19T06:01:43;1.51;;;1.38;;
68700;SDS011;55682;51.114;5.882;2023-10-19T06:04:12;1.22;;;1.12;;
68700;SDS011;55682;51.114;5.882;2023-10-19T06:06:38;1.42;;;1.30;;
68700;SDS011;55682;51.114;5.882;2023-10-19T06:09:07;1.39;;;1.25;;
68700;SDS011;55682;51.114;5.882;2023-10-19T06:11:34;1.23;;;1.12;;
68700;SDS011;55682;51.114;5.882;2023-10-19T06:14:03;1.28;;;1.18;;
68700;SDS011;55682;51.114;5.882;2023-10-19T06:16:32;1.36;;;1.23;;
68700;SDS011;55682;51.114;5.882;2023-10-19T06:19:01;1.39;;;1.24;;
68700;SDS011;55682;51.114;5.882;2023-10-19T06:21:27;1.34;;;1.20;;
68700;SDS011;55682;51.114;5.882;2023-10-19T06:23:53;1.41;;;1.28;;
68700;SDS011;55682;51.114;5.882;2023-10-19T06:26:19;1.34;;;1.21;;
68700;SDS011;55682;51.114;5.882;2023-10-19T06:28:45;1.40;;;1.26;;
68700;SDS011;55682;51.114;5.882;2023-10-19T06:31:11;1.51;;;1.37;;
68700;SDS011;55682;51.114;5.882;2023-10-19T06:33:36;1.33;;;1.24;;
68700;SDS011;55682;51.114;5.882;2023-10-19T06:36:06;1.18;;;1.13;;
68700;SDS011;55682;51.114;5.882;2023-10-19T06:38:32;1.27;;;1.18;;
68700;SDS011;55682;51.114;5.882;2023-10-19T06:40:58;1.47;;;1.34;;
68700;SDS011;55682;51.114;5.882;2023-10-19T06:43:24;1.52;;;1.38;;
68700;SDS011;55682;51.114;5.882;2023-10-19T06:45:54;1.40;;;1.27;;
68700;SDS011;55682;51.114;5.882;2023-10-19T06:48:20;1.48;;;1.34;;
68700;SDS011;55682;51.114;5.882;2023-10-19T06:50:46;1.31;;;1.19;;
68700;SDS011;55682;51.114;5.882;2023-10-19T06:53:12;1.36;;;1.25;;
68700;SDS011;55682;51.114;5.882;2023-10-19T06:55:37;1.61;;;1.48;;
68700;SDS011;55682;51.114;5.882;2023-10-19T06:58:03;1.47;;;1.36;;
68700;SDS011;55682;51.114;5.882;2023-10-19T07:00:30;1.21;;;1.13;;
68700;SDS011;55682;51.114;5.882;2023-10-19T07:02:56;1.37;;;1.29;;
68700;SDS011;55682;51.114;5.882;2023-10-19T07:05:25;1.35;;;1.28;;
68700;SDS011;55682;51.114;5.882;2023-10-19T07:07:55;1.35;;;1.26;;
68700;SDS011;55682;51.114;5.882;2023-10-19T07:10:22;1.33;;;1.24;;
68700;SDS011;55682;51.114;5.882;2023-10-19T07:12:52;1.45;;;1.36;;
68700;SDS011;55682;51.114;5.882;2023-10-19T07:15:19;1.51;;;1.44;;
68700;SDS011;55682;51.114;5.882;2023-10-19T07:17:47;1.53;;;1.48;;
68700;SDS011;55682;51.114;5.882;2023-10-19T07:20:15;1.74;;;1.68;;
68700;SDS011;55682;51.114;5.882;2023-10-19T07:22:51;1.49;;;1.42;;
68700;SDS011;55682;51.114;5.882;2023-10-19T07:25:17;1.28;;;1.23;;
68700;SDS011;55682;51.114;5.882;2023-10-19T07:27:46;1.22;;;1.19;;
68700;SDS011;55682;51.114;5.882;2023-10-19T07:30:15;1.31;;;1.28;;
68700;SDS011;55682;51.114;5.882;2023-10-19T07:32:51;1.40;;;1.37;;
68700;SDS011;55682;51.114;5.882;2023-10-19T07:35:24;1.49;;;1.44;;
68700;SDS011;55682;51.114;5.882;2023-10-19T07:37:51;1.26;;;1.22;;
68700;SDS011;55682;51.114;5.882;2023-10-19T07:40:17;1.33;;;1.31;;
68700;SDS011;55682;51.114;5.882;2023-10-19T07:42:44;1.33;;;1.33;;
68700;SDS011;55682;51.114;5.882;2023-10-19T07:45:11;1.16;;;1.16;;
68700;SDS011;55682;51.114;5.882;2023-10-19T07:47:38;1.36;;;1.36;;
68700;SDS011;55682;51.114;5.882;2023-10-19T07:50:10;1.32;;;1.32;;
68700;SDS011;55682;51.114;5.882;2023-10-19T07:52:44;1.27;;;1.27;;
68700;SDS011;55682;51.114;5.882;2023-10-19T07:55:17;1.31;;;1.31;;
68700;SDS011;55682;51.114;5.882;2023-10-19T07:57:45;1.27;;;1.27;;
68700;SDS011;55682;51.114;5.882;2023-10-19T08:00:15;1.23;;;1.21;;
68700;SDS011;55682;51.114;5.882;2023-10-19T08:02:43;1.52;;;1.47;;
68700;SDS011;55682;51.114;5.882;2023-10-19T08:05:12;1.68;;;1.62;;
68700;SDS011;55682;51.114;5.882;2023-10-19T08:07:41;1.53;;;1.48;;
68700;SDS011;55682;51.114;5.882;2023-10-19T08:10:12;1.58;;;1.53;;
68700;SDS011;55682;51.114;5.882;2023-10-19T08:12:40;1.88;;;1.82;;
68700;SDS011;55682;51.114;5.882;2023-10-19T08:15:08;1.82;;;1.79;;
68700;SDS011;55682;51.114;5.882;2023-10-19T08:17:36;1.79;;;1.77;;
68700;SDS011;55682;51.114;5.882;2023-10-19T08:20:06;1.44;;;1.44;;
68700;SDS011;55682;51.114;5.882;2023-10-19T08:22:44;1.59;;;1.55;;
68700;SDS011;55682;51.114;5.882;2023-10-19T08:25:13;1.44;;;1.38;;
68700;SDS011;55682;51.114;5.882;2023-10-19T08:27:40;1.33;;;1.26;;
68700;SDS011;55682;51.114;5.882;2023-10-19T08:30:10;1.64;;;1.52;;
68700;SDS011;55682;51.114;5.882;2023-10-19T08:32:39;1.57;;;1.42;;
68700;SDS011;55682;51.114;5.882;2023-10-19T08:35:07;1.69;;;1.53;;
68700;SDS011;55682;51.114;5.882;2023-10-19T08:37:34;1.40;;;1.27;;
68700;SDS011;55682;51.114;5.882;2023-10-19T08:40:00;1.45;;;1.31;;
68700;SDS011;55682;51.114;5.882;2023-10-19T08:42:26;1.59;;;1.44;;
68700;SDS011;55682;51.114;5.882;2023-10-19T08:44:55;1.46;;;1.34;;
68700;SDS011;55682;51.114;5.882;2023-10-19T08:47:21;1.14;;;1.05;;
68700;SDS011;55682;51.114;5.882;2023-10-19T08:49:51;1.63;;;1.45;;
68700;SDS011;55682;51.114;5.882;2023-10-19T08:52:19;1.57;;;1.36;;
68700;SDS011;55682;51.114;5.882;2023-10-19T08:54:47;1.57;;;1.34;;
68700;SDS011;55682;51.114;5.882;2023-10-19T08:57:13;1.68;;;1.45;;
68700;SDS011;55682;51.114;5.882;2023-10-19T08:59:39;1.26;;;1.09;;
68700;SDS011;55682;51.114;5.882;2023-10-19T09:02:05;1.52;;;1.33;;
68700;SDS011;55682;51.114;5.882;2023-10-19T09:04:32;1.25;;;1.09;;
68700;SDS011;55682;51.114;5.882;2023-10-19T09:07:06;1.29;;;1.10;;
68700;SDS011;55682;51.114;5.882;2023-10-19T09:09:35;1.52;;;1.29;;
68700;SDS011;55682;51.114;5.882;2023-10-19T09:12:06;1.59;;;1.34;;
68700;SDS011;55682;51.114;5.882;2023-10-19T09:14:34;1.94;;;1.58;;
68700;SDS011;55682;51.114;5.882;2023-10-19T09:17:08;1.51;;;1.22;;
68700;SDS011;55682;51.114;5.882;2023-10-19T09:19:40;1.78;;;1.43;;
68700;SDS011;55682;51.114;5.882;2023-10-19T09:22:07;1.77;;;1.40;;
68700;SDS011;55682;51.114;5.882;2023-10-19T09:24:42;1.77;;;1.45;;
68700;SDS011;55682;51.114;5.882;2023-10-19T09:27:08;1.41;;;1.15;;
68700;SDS011;55682;51.114;5.882;2023-10-19T09:29:34;1.52;;;1.23;;
68700;SDS011;55682;51.114;5.882;2023-10-19T09:31:59;1.94;;;1.55;;
68700;SDS011;55682;51.114;5.882;2023-10-19T09:34:30;1.70;;;1.32;;
68700;SDS011;55682;51.114;5.882;2023-10-19T09:36:59;2.11;;;1.63;;
68700;SDS011;55682;51.114;5.882;2023-10-19T09:39:29;2.09;;;1.64;;
68700;SDS011;55682;51.114;5.882;2023-10-19T09:44:42;1.76;;;1.42;;
68700;SDS011;55682;51.114;5.882;2023-10-19T09:47:13;2.10;;;1.67;;
68700;SDS011;55682;51.114;5.882;2023-10-19T09:49:56;1.82;;;1.46;;
68700;SDS011;55682;51.114;5.882;2023-10-19T09:52:22;1.76;;;1.43;;
68700;SDS011;55682;51.114;5.882;2023-10-19T09:54:54;1.84;;;1.51;;
68700;SDS011;55682;51.114;5.882;2023-10-19T09:57:32;1.79;;;1.49;;
68700;SDS011;55682;51.114;5.882;2023-10-19T10:00:03;1.67;;;1.41;;
68700;SDS011;55682;51.114;5.882;2023-10-19T10:02:42;1.63;;;1.36;;
68700;SDS011;55682;51.114;5.882;2023-10-19T10:10:42;1.88;;;1.51;;
68700;SDS011;55682;51.114;5.882;2023-10-19T10:15:53;2.17;;;1.68;;
68700;SDS011;55682;51.114;5.882;2023-10-19T10:18:20;2.10;;;1.60;;
68700;SDS011;55682;51.114;5.882;2023-10-19T10:21:04;1.96;;;1.48;;
68700;SDS011;55682;51.114;5.882;2023-10-19T10:26:22;2.56;;;1.99;;
68700;SDS011;55682;51.114;5.882;2023-10-19T10:31:34;1.88;;;1.50;;
68700;SDS011;55682;51.114;5.882;2023-10-19T10:34:07;1.90;;;1.50;;
68700;SDS011;55682;51.114;5.882;2023-10-19T10:39:22;2.01;;;1.56;;
68700;SDS011;55682;51.114;5.882;2023-10-19T10:41:55;2.11;;;1.63;;
68700;SDS011;55682;51.114;5.882;2023-10-19T10:44:40;1.68;;;1.28;;
68700;SDS011;55682;51.114;5.882;2023-10-19T10:47:44;2.00;;;1.53;;
68700;SDS011;55682;51.114;5.882;2023-10-19T10:50:01;2.03;;;1.57;;
68700;SDS011;55682;51.114;5.882;2023-10-19T10:52:30;2.17;;;1.68;;
68700;SDS011;55682;51.114;5.882;2023-10-19T10:55:06;2.08;;;1.60;;
68700;SDS011;55682;51.114;5.882;2023-10-19T10:57:32;2.38;;;1.78;;
68700;SDS011;55682;51.114;5.882;2023-10-19T11:00:03;2.23;;;1.71;;
68700;SDS011;55682;51.114;5.882;2023-10-19T11:02:32;1.94;;;1.48;;
68700;SDS011;55682;51.114;5.882;2023-10-19T11:04:59;2.05;;;1.54;;
68700;SDS011;55682;51.114;5.882;2023-10-19T11:07:25;2.34;;;1.79;;
68700;SDS011;55682;51.114;5.882;2023-10-19T11:09:51;2.17;;;1.66;;
68700;SDS011;55682;51.114;5.882;2023-10-19T11:12:16;1.80;;;1.39;;
68700;SDS011;55682;51.114;5.882;2023-10-19T11:14:54;1.79;;;1.39;;
68700;SDS011;55682;51.114;5.882;2023-10-19T11:17:21;2.08;;;1.62;;
68700;SDS011;55682;51.114;5.882;2023-10-19T11:19:58;1.83;;;1.40;;
68700;SDS011;55682;51.114;5.882;2023-10-19T11:22:25;2.34;;;1.78;;
68700;SDS011;55682;51.114;5.882;2023-10-19T11:24:52;1.94;;;1.50;;
68700;SDS011;55682;51.114;5.882;2023-10-19T11:27:23;1.95;;;1.49;;
68700;SDS011;55682;51.114;5.882;2023-10-19T11:29:55;2.07;;;1.58;;
68700;SDS011;55682;51.114;5.882;2023-10-19T11:32:22;2.35;;;1.76;;
68700;SDS011;55682;51.114;5.882;2023-10-19T11:34:54;1.97;;;1.47;;
68700;SDS011;55682;51.114;5.882;2023-10-19T11:37:21;2.31;;;1.73;;
68700;SDS011;55682;51.114;5.882;2023-10-19T11:39:47;2.16;;;1.61;;
68700;SDS011;55682;51.114;5.882;2023-10-19T11:42:15;2.08;;;1.55;;
68700;SDS011;55682;51.114;5.882;2023-10-19T11:44:43;2.28;;;1.72;;
68700;SDS011;55682;51.114;5.882;2023-10-19T11:47:09;2.31;;;1.79;;
68700;SDS011;55682;51.114;5.882;2023-10-19T11:49:35;1.86;;;1.46;;
68700;SDS011;55682;51.114;5.882;2023-10-19T11:52:04;2.11;;;1.66;;
68700;SDS011;55682;51.114;5.882;2023-10-19T11:54:32;1.77;;;1.40;;
68700;SDS011;55682;51.114;5.882;2023-10-19T11:57:01;1.75;;;1.38;;
68700;SDS011;55682;51.114;5.882;2023-10-19T11:59:27;2.17;;;1.70;;
68700;SDS011;55682;51.114;5.882;2023-10-19T12:01:53;2.10;;;1.64;;
68700;SDS011;55682;51.114;5.882;2023-10-19T12:04:19;1.87;;;1.50;;
68700;SDS011;55682;51.114;5.882;2023-10-19T12:06:45;1.76;;;1.43;;
68700;SDS011;55682;51.114;5.882;2023-10-19T12:09:13;1.77;;;1.46;;
68700;SDS011;55682;51.114;5.882;2023-10-19T12:11:42;1.70;;;1.42;;
68700;SDS011;55682;51.114;5.882;2023-10-19T12:14:09;1.92;;;1.64;;
68700;SDS011;55682;51.114;5.882;2023-10-19T12:16:40;1.82;;;1.54;;
68700;SDS011;55682;51.114;5.882;2023-10-19T12:19:06;1.79;;;1.51;;
68700;SDS011;55682;51.114;5.882;2023-10-19T12:21:35;1.82;;;1.56;;
68700;SDS011;55682;51.114;5.882;2023-10-19T12:24:03;1.57;;;1.38;;
68700;SDS011;55682;51.114;5.882;2023-10-19T12:26:30;1.82;;;1.59;;
68700;SDS011;55682;51.114;5.882;2023-10-19T12:28:56;1.81;;;1.60;;
68700;SDS011;55682;51.114;5.882;2023-10-19T12:31:22;1.71;;;1.55;;
68700;SDS011;55682;51.114;5.882;2023-10-19T12:33:48;1.47;;;1.34;;
68700;SDS011;55682;51.114;5.882;2023-10-19T12:36:14;1.63;;;1.51;;
68700;SDS011;55682;51.114;5.882;2023-10-19T12:38:49;1.78;;;1.63;;
68700;SDS011;55682;51.114;5.882;2023-10-19T12:41:16;2.06;;;1.83;;
68700;SDS011;55682;51.114;5.882;2023-10-19T12:43:42;1.98;;;1.75;;
68700;SDS011;55682;51.114;5.882;2023-10-19T12:46:08;1.87;;;1.69;;
68700;SDS011;55682;51.114;5.882;2023-10-19T12:48:34;1.94;;;1.76;;
68700;SDS011;55682;51.114;5.882;2023-10-19T12:51:09;2.05;;;1.88;;
68700;SDS011;55682;51.114;5.882;2023-10-19T12:53:37;1.99;;;1.80;;
68700;SDS011;55682;51.114;5.882;2023-10-19T12:56:05;1.87;;;1.67;;
68700;SDS011;55682;51.114;5.882;2023-10-19T12:58:33;2.02;;;1.79;;
68700;SDS011;55682;51.114;5.882;2023-10-19T13:01:00;2.21;;;1.97;;
68700;SDS011;55682;51.114;5.882;2023-10-19T13:03:25;1.82;;;1.64;;
68700;SDS011;55682;51.114;5.882;2023-10-19T13:05:57;1.96;;;1.76;;
68700;SDS011;55682;51.114;5.882;2023-10-19T13:08:23;1.87;;;1.70;;
68700;SDS011;55682;51.114;5.882;2023-10-19T13:10:52;1.98;;;1.85;;
68700;SDS011;55682;51.114;5.882;2023-10-19T13:13:19;1.75;;;1.62;;
68700;SDS011;55682;51.114;5.882;2023-10-19T13:15:49;1.81;;;1.69;;
68700;SDS011;55682;51.114;5.882;2023-10-19T13:18:15;1.99;;;1.86;;
68700;SDS011;55682;51.114;5.882;2023-10-19T13:20:53;1.74;;;1.65;;
68700;SDS011;55682;51.114;5.882;2023-10-19T13:23:19;1.92;;;1.85;;
68700;SDS011;55682;51.114;5.882;2023-10-19T13:25:48;2.04;;;1.96;;
68700;SDS011;55682;51.114;5.882;2023-10-19T13:28:15;1.87;;;1.77;;
68700;SDS011;55682;51.114;5.882;2023-10-19T13:30:45;1.60;;;1.53;;
68700;SDS011;55682;51.114;5.882;2023-10-19T13:33:12;1.94;;;1.87;;
68700;SDS011;55682;51.114;5.882;2023-10-19T13:35:42;1.63;;;1.55;;
68700;SDS011;55682;51.114;5.882;2023-10-19T13:38:10;1.48;;;1.42;;
68700;SDS011;55682;51.114;5.882;2023-10-19T13:40:38;1.39;;;1.33;;
68700;SDS011;55682;51.114;5.882;2023-10-19T13:43:04;1.05;;;1.02;;
68700;SDS011;55682;51.114;5.882;2023-10-19T13:45:35;1.13;;;1.09;;
68700;SDS011;55682;51.114;5.882;2023-10-19T13:48:02;1.32;;;1.28;;
68700;SDS011;55682;51.114;5.882;2023-10-19T13:50:29;1.21;;;1.17;;
68700;SDS011;55682;51.114;5.882;2023-10-19T13:52:56;1.26;;;1.21;;
68700;SDS011;55682;51.114;5.882;2023-10-19T13:55:23;1.28;;;1.23;;
68700;SDS011;55682;51.114;5.882;2023-10-19T13:57:49;1.21;;;1.16;;
68700;SDS011;55682;51.114;5.882;2023-10-19T14:00:16;1.36;;;1.31;;
68700;SDS011;55682;51.114;5.882;2023-10-19T14:02:53;1.22;;;1.17;;
68700;SDS011;55682;51.114;5.882;2023-10-19T14:05:19;1.14;;;1.09;;
68700;SDS011;55682;51.114;5.882;2023-10-19T14:07:46;1.15;;;1.09;;
68700;SDS011;55682;51.114;5.882;2023-10-19T14:10:12;1.45;;;1.37;;
68700;SDS011;55682;51.114;5.882;2023-10-19T14:12:42;1.47;;;1.38;;
68700;SDS011;55682;51.114;5.882;2023-10-19T14:15:12;1.79;;;1.70;;
68700;SDS011;55682;51.114;5.882;2023-10-19T14:17:45;1.63;;;1.55;;
68700;SDS011;55682;51.114;5.882;2023-10-19T14:20:13;1.35;;;1.29;;
68700;SDS011;55682;51.114;5.882;2023-10-19T14:22:48;1.42;;;1.38;;
68700;SDS011;55682;51.114;5.882;2023-10-19T14:25:15;1.38;;;1.34;;
68700;SDS011;55682;51.114;5.882;2023-10-19T14:27:45;1.13;;;1.12;;
68700;SDS011;55682;51.114;5.882;2023-10-19T14:30:16;1.15;;;1.14;;
68700;SDS011;55682;51.114;5.882;2023-10-19T14:32:47;1.09;;;1.07;;
68700;SDS011;55682;51.114;5.882;2023-10-19T14:35:17;1.13;;;1.10;;
68700;SDS011;55682;51.114;5.882;2023-10-19T14:37:52;1.17;;;1.13;;
68700;SDS011;55682;51.114;5.882;2023-10-19T14:40:25;1.37;;;1.32;;
68700;SDS011;55682;51.114;5.882;2023-10-19T14:42:52;1.43;;;1.37;;
68700;SDS011;55682;51.114;5.882;2023-10-19T14:45:24;1.37;;;1.31;;
68700;SDS011;55682;51.114;5.882;2023-10-19T14:47:51;1.46;;;1.40;;
68700;SDS011;55682;51.114;5.882;2023-10-19T14:50:20;1.49;;;1.42;;
68700;SDS011;55682;51.114;5.882;2023-10-19T14:52:48;1.29;;;1.24;;
68700;SDS011;55682;51.114;5.882;2023-10-19T14:55:19;1.30;;;1.26;;
68700;SDS011;55682;51.114;5.882;2023-10-19T14:57:47;1.46;;;1.41;;
68700;SDS011;55682;51.114;5.882;2023-10-19T15:00:15;1.30;;;1.25;;
68700;SDS011;55682;51.114;5.882;2023-10-19T15:02:54;1.47;;;1.39;;
68700;SDS011;55682;51.114;5.882;2023-10-19T15:05:22;1.53;;;1.45;;
68700;SDS011;55682;51.114;5.882;2023-10-19T15:07:50;1.40;;;1.31;;
68700;SDS011;55682;51.114;5.882;2023-10-19T15:10:18;1.33;;;1.25;;
68700;SDS011;55682;51.114;5.882;2023-10-19T15:12:44;1.21;;;1.15;;
68700;SDS011;55682;51.114;5.882;2023-10-19T15:15:10;1.37;;;1.32;;
68700;SDS011;55682;51.114;5.882;2023-10-19T15:17:40;1.53;;;1.48;;
68700;SDS011;55682;51.114;5.882;2023-10-19T15:20:09;1.36;;;1.33;;
68700;SDS011;55682;51.114;5.882;2023-10-19T15:22:36;1.39;;;1.36;;
68700;SDS011;55682;51.114;5.882;2023-10-19T15:25:03;1.37;;;1.34;;
68700;SDS011;55682;51.114;5.882;2023-10-19T15:27:30;1.21;;;1.17;;
68700;SDS011;55682;51.114;5.882;2023-10-19T15:29:56;1.34;;;1.28;;